Time;durP1;ratioP1;P1;durP2;ratioP2;P2;SDS_P1;SDS_P2;PMS_P1;PMS_P2;Temp;Humidity;BMP_temperature;BMP_pressure;BME280_temperature;BME280_humidity;BME280_pressure;Samples;Min_cycle;Max_cycle;Signal;HPM_P1;HPM_P2
2022/10/09 00:00:20;;;;;;;;;3.75;2.00;;;;;20.72;39.21;101886.56;5060141;28;49463;-60
2022/10/09 00:02:45;;;;;;;;;2.25;2.00;;;;;20.70;39.61;101881.31;5064502;28;45351;-61
2022/10/09 00:05:11;;;;;;;;;1.50;1.50;;;;;20.69;39.53;101876.97;5058948;28;45458;-57
2022/10/09 00:07:36;;;;;;;;;2.00;2.00;;;;;20.72;39.19;101883.94;5058202;28;46988;-59
2022/10/09 00:10:02;;;;;;;;;3.00;2.00;;;;;20.72;39.55;101888.31;5057844;28;45345;-56
2022/10/09 00:12:28;;;;;;;;;2.25;2.00;;;;;20.70;39.23;101881.31;5057762;28;45220;-56
2022/10/09 00:14:53;;;;;;;;;2.25;2.00;;;;;20.70;39.09;101875.22;5058145;28;45498;-57
2022/10/09 00:17:18;;;;;;;;;3.00;3.00;;;;;20.70;39.26;101877.84;5058150;28;48306;-58
2022/10/09 00:19:43;;;;;;;;;1.33;1.00;;;;;20.70;39.58;101881.31;5057776;28;56514;-62
2022/10/09 00:22:09;;;;;;;;;4.00;2.50;;;;;20.70;39.37;101885.75;5058103;28;45240;-60
2022/10/09 00:24:34;;;;;;;;;2.75;2.75;;;;;20.70;38.99;101870.78;5057773;28;45483;-60
2022/10/09 00:26:59;;;;;;;;;3.50;2.25;;;;;20.70;38.96;101878.69;5065405;28;54069;-62
2022/10/09 00:29:24;;;;;;;;;2.67;2.33;;;;;20.69;39.47;101874.34;5077935;28;62053;-60
2022/10/09 00:31:50;;;;;;;;;3.00;3.00;;;;;20.70;38.99;101875.22;5063336;28;48620;-62
2022/10/09 00:34:15;;;;;;;;;2.25;2.25;;;;;20.68;39.03;101877.88;5059118;28;45509;-61
2022/10/09 00:36:40;;;;;;;;;1.25;1.25;;;;;20.69;39.00;101870.88;5056626;28;67535;-63
2022/10/09 00:39:06;;;;;;;;;3.50;2.25;;;;;20.68;39.15;101872.63;5057079;28;46170;-62
2022/10/09 00:41:33;;;;;;;;;4.00;2.25;;;;;20.68;39.46;101872.63;5058018;28;45450;-62
2022/10/09 00:44:01;;;;;;;;;2.25;2.25;;;;;20.69;38.93;101870.88;5057471;28;45643;-62
2022/10/09 00:46:35;;;;;;;;;3.00;2.00;;;;;20.68;39.37;101867.34;5055847;28;45240;-63
2022/10/09 00:49:04;;;;;;;;;2.00;2.00;;;;;20.67;39.35;101863.00;5056696;28;45261;-62
2022/10/09 00:51:31;;;;;;;;;3.00;2.00;;;;;20.69;38.88;101870.88;5057374;28;45294;-63
2022/10/09 00:53:57;;;;;;;;;2.50;2.50;;;;;20.67;39.35;101870.91;5057507;28;45533;-63
2022/10/09 00:56:24;;;;;;;;;2.25;2.00;;;;;20.67;39.05;101860.38;5063371;28;45351;-59
2022/10/09 00:58:53;;;;;;;;;3.00;3.00;;;;;20.67;39.40;101870.91;5064027;28;45254;-58
2022/10/09 01:01:19;;;;;;;;;1.00;1.00;;;;;20.67;39.16;101865.63;5060390;28;45228;-57
2022/10/09 01:03:45;;;;;;;;;2.00;2.00;;;;;20.68;39.55;101867.34;5072740;28;44829;-59
2022/10/09 01:06:22;;;;;;;;;4.00;4.00;;;;;20.67;39.44;101870.06;5057242;28;45444;-62
2022/10/09 01:08:59;;;;;;;;;2.00;2.00;;;;;20.67;38.88;101857.72;5056337;28;45376;-62
2022/10/09 01:11:27;;;;;;;;;2.00;2.00;;;;;20.67;39.13;101855.09;5056729;28;45343;-60
2022/10/09 01:14:21;;;;;;;;;3.00;3.00;;;;;20.66;38.83;101842.88;5057291;28;45212;-60
2022/10/09 01:16:57;;;;;;;;;2.50;2.50;;;;;20.66;39.28;101839.38;5057098;28;46387;-61
2022/10/09 01:19:48;;;;;;;;;3.00;2.00;;;;;20.67;38.97;101841.09;5058708;28;45247;-59
2022/10/09 01:22:45;;;;;;;;;4.75;2.00;;;;;20.66;39.43;101842.00;5057988;28;45440;-59
2022/10/09 01:25:23;;;;;;;;;3.00;1.00;;;;;20.65;39.31;101833.25;5064971;28;45325;-55
2022/10/09 01:27:49;;;;;;;;;1.50;1.50;;;;;20.65;39.36;101833.25;5057129;28;45517;-56
2022/10/09 01:30:14;;;;;;;;;5.00;2.25;;;;;20.65;39.29;101828.00;5054846;28;45356;-57
2022/10/09 01:32:45;;;;;;;;;3.50;1.00;;;;;20.66;39.09;101823.56;5056679;28;45427;-58
2022/10/09 01:35:12;;;;;;;;;2.00;2.00;;;;;20.65;39.03;101825.34;5056768;28;45320;-62
2022/10/09 01:37:41;;;;;;;;;2.75;1.50;;;;;20.64;39.12;101818.38;5056178;28;46202;-62
2022/10/09 01:40:08;;;;;;;;;3.50;1.50;;;;;20.65;39.38;101808.69;5057183;28;45406;-59
2022/10/09 01:42:33;;;;;;;;;2.00;2.00;;;;;20.65;39.02;101814.81;5057288;28;45340;-62
2022/10/09 01:44:58;;;;;;;;;2.50;2.50;;;;;20.64;39.11;101807.84;5057897;28;45593;-63
2022/10/09 01:47:24;;;;;;;;;3.25;2.00;;;;;20.63;39.00;101795.56;5061338;28;49910;-61
2022/10/09 01:49:52;;;;;;;;;2.25;2.25;;;;;20.64;39.04;101792.03;5067660;28;45331;-58
2022/10/09 01:52:27;;;;;;;;;1.00;1.00;;;;;20.63;39.07;101786.81;5065454;28;45402;-59
2022/10/09 01:55:14;;;;;;;;;5.25;2.25;;;;;20.64;39.12;101784.13;5060590;28;45253;-56
2022/10/09 01:58:19;;;;;;;;;2.50;2.00;;;;;20.63;38.96;101789.44;5047862;28;47390;-56
2022/10/09 02:01:13;;;;;;;;;2.00;2.00;;;;;20.64;39.06;101776.22;5000826;28;45413;-57
2022/10/09 02:03:41;;;;;;;;;3.75;2.00;;;;;20.63;39.33;101777.13;5075161;28;45710;-56
2022/10/09 02:06:10;;;;;;;;;3.25;1.75;;;;;20.62;39.24;101767.53;5076574;28;44800;-59
2022/10/09 02:08:38;;;;;;;;;2.00;2.00;;;;;20.63;39.07;101768.38;5062666;28;46676;-57
2022/10/09 02:11:05;;;;;;;;;2.00;1.00;;;;;20.62;39.20;101778.06;5076304;28;45182;-60
2022/10/09 02:13:33;;;;;;;;;2.00;2.00;;;;;20.62;38.83;101759.63;5078982;28;45350;-57
2022/10/09 02:16:36;;;;;;;;;2.50;2.00;;;;;20.62;39.38;101756.13;5083616;27;45640;-57
2022/10/09 02:19:10;;;;;;;;;2.00;2.00;;;;;20.61;39.11;101755.28;5076327;28;46154;-56
2022/10/09 02:21:47;;;;;;;;;2.00;1.00;;;;;20.61;39.38;101755.28;5077703;27;45138;-57
2022/10/09 02:24:17;;;;;;;;;3.00;1.00;;;;;20.62;39.19;101753.47;5071324;28;45279;-64
2022/10/09 02:26:42;;;;;;;;;2.00;2.00;;;;;20.59;39.33;101743.94;5061251;28;45223;-61
2022/10/09 02:29:08;;;;;;;;;2.00;2.00;;;;;20.61;38.98;101742.09;5058739;28;45426;-58
2022/10/09 02:31:37;;;;;;;;;4.00;2.25;;;;;20.61;39.11;101744.72;5058980;28;45359;-63
2022/10/09 02:34:06;;;;;;;;;2.00;2.00;;;;;20.60;39.23;101740.38;5058138;28;45454;-64
2022/10/09 02:36:32;;;;;;;;;2.00;2.00;;;;;20.60;39.41;101737.75;5058816;28;45480;-59
2022/10/09 02:38:58;;;;;;;;;2.00;2.00;;;;;20.60;38.77;101740.38;5058069;28;45391;-60
2022/10/09 02:41:24;;;;;;;;;2.00;2.00;;;;;20.61;39.18;101733.34;5058713;28;45253;-61
2022/10/09 02:43:50;;;;;;;;;1.75;1.75;;;;;20.59;38.85;101730.75;5058593;28;45354;-60
2022/10/09 02:46:15;;;;;;;;;1.75;1.75;;;;;20.60;39.28;101731.63;5063339;28;45415;-62
2022/10/09 02:48:41;;;;;;;;;1.50;1.00;;;;;20.59;39.06;101728.13;5063464;28;46449;-59
2022/10/09 02:51:07;;;;;;;;;2.00;2.00;;;;;20.60;38.79;101729.84;5058925;28;45359;-58
2022/10/09 02:53:33;;;;;;;;;1.00;1.00;;;;;20.59;39.06;101724.66;5057399;28;45496;-58
2022/10/09 02:55:58;;;;;;;;;3.00;1.00;;;;;20.59;39.20;101722.88;5057359;28;45676;-60
2022/10/09 02:58:24;;;;;;;;;2.00;2.00;;;;;20.58;39.19;101715.03;5057714;28;49008;-61
2022/10/09 03:00:50;;;;;;;;;2.00;2.00;;;;;20.59;38.96;101725.50;5057678;28;45435;-61
2022/10/09 03:03:16;;;;;;;;;1.50;1.50;;;;;20.58;39.46;101710.63;5058122;28;45359;-64
2022/10/09 03:05:42;;;;;;;;;1.00;1.00;;;;;20.59;38.95;101714.13;5058096;28;45392;-63
2022/10/09 03:08:07;;;;;;;;;1.00;1.00;;;;;20.57;39.07;101708.91;5057491;28;46121;-63
2022/10/09 03:10:32;;;;;;;;;2.00;2.00;;;;;20.58;39.02;101718.50;5059053;28;45314;-63
2022/10/09 03:12:58;;;;;;;;;2.00;1.00;;;;;20.57;39.36;101708.06;5052652;28;46992;-62
2022/10/09 03:15:24;;;;;;;;;2.00;2.00;;;;;20.56;39.22;101701.91;5079878;28;45389;-56
2022/10/09 03:17:49;;;;;;;;;1.00;1.00;;;;;20.57;39.12;101703.63;5059678;28;45417;-58
2022/10/09 03:20:14;;;;;;;;;3.75;1.00;;;;;20.55;39.23;101697.59;5057881;28;45253;-58
2022/10/09 03:22:40;;;;;;;;;2.00;1.00;;;;;20.57;39.19;101695.72;5057726;28;45229;-60
2022/10/09 03:25:06;;;;;;;;;1.00;1.00;;;;;20.54;39.17;101696.72;5058222;28;45517;-57
2022/10/09 03:27:32;;;;;;;;;1.00;1.00;;;;;20.54;38.97;101693.25;5057981;28;46648;-60
2022/10/09 03:29:57;;;;;;;;;2.00;2.00;;;;;20.54;38.85;101701.16;5057621;28;45402;-59
2022/10/09 03:32:23;;;;;;;;;2.50;2.50;;;;;20.55;38.79;101692.31;5057805;28;45320;-61
2022/10/09 03:34:48;;;;;;;;;3.50;1.00;;;;;20.54;38.84;101690.63;5057787;28;45288;-58
2022/10/09 03:37:13;;;;;;;;;3.00;2.25;;;;;20.54;39.09;101690.63;5059276;28;46079;-59
2022/10/09 03:39:39;;;;;;;;;3.75;1.75;;;;;20.54;38.82;101688.81;5062695;28;49658;-62
2022/10/09 03:42:04;;;;;;;;;2.25;2.00;;;;;20.54;39.33;101685.34;5076554;28;45392;-57
2022/10/09 03:44:30;;;;;;;;;2.25;2.25;;;;;20.53;38.92;101683.63;5064261;28;45365;-56
2022/10/09 03:46:55;;;;;;;;;1.67;1.33;;;;;20.53;38.71;101689.75;5056578;28;67634;-55
2022/10/09 03:49:20;;;;;;;;;2.50;1.75;;;;;20.54;39.16;101680.91;5057857;28;55366;-58
2022/10/09 03:51:46;;;;;;;;;2.00;2.00;;;;;20.52;38.74;101684.53;5058373;28;48364;-56
2022/10/09 03:54:11;;;;;;;;;2.50;2.25;;;;;20.51;39.18;101681.03;5059565;28;45288;-56
2022/10/09 03:56:36;;;;;;;;;3.00;2.00;;;;;20.52;39.15;101681.91;5065713;28;53141;-57
2022/10/09 03:59:04;;;;;;;;;1.50;1.00;;;;;20.53;39.18;101683.63;5064215;28;45407;-56
2022/10/09 04:01:30;;;;;;;;;1.00;1.00;;;;;20.52;39.22;101677.47;5067822;28;45205;-57
2022/10/09 04:03:55;;;;;;;;;1.00;1.00;;;;;20.52;39.00;101677.47;5072378;28;45229;-58
2022/10/09 04:06:20;;;;;;;;;0.75;0.75;;;;;20.51;39.21;101678.41;5078755;28;52752;-55
2022/10/09 04:08:45;;;;;;;;;1.00;1.00;;;;;20.51;39.26;101669.66;5076818;28;63078;-57
2022/10/09 04:11:11;;;;;;;;;2.00;2.00;;;;;20.51;39.11;101675.78;5079238;28;44767;-55
2022/10/09 04:13:36;;;;;;;;;2.25;2.25;;;;;20.51;38.69;101672.28;5080275;28;44841;-55
2022/10/09 04:16:01;;;;;;;;;1.00;1.00;;;;;20.51;38.82;101664.41;5082198;27;45502;-60
2022/10/09 04:18:27;;;;;;;;;1.00;1.00;;;;;20.53;39.02;101675.72;5079753;28;44730;-56
2022/10/09 04:20:54;;;;;;;;;3.00;2.00;;;;;20.50;38.69;101671.44;5077805;28;44849;-59
2022/10/09 04:23:22;;;;;;;;;1.00;1.00;;;;;20.51;39.21;101670.50;5080383;28;44805;-61
2022/10/09 04:25:58;;;;;;;;;1.00;1.00;;;;;20.51;39.05;101669.66;5068239;28;45327;-60
2022/10/09 04:28:24;;;;;;;;;1.25;1.25;;;;;20.51;38.93;101661.75;5061307;28;45107;-63
2022/10/09 04:30:50;;;;;;;;;3.25;2.00;;;;;20.51;38.69;101659.13;5061493;28;45179;-61
2022/10/09 04:33:15;;;;;;;;;1.50;1.50;;;;;20.51;38.64;101673.13;5063065;28;45580;-60
2022/10/09 04:35:42;;;;;;;;;3.00;3.00;;;;;20.50;39.04;101660.03;5063658;28;45361;-62
2022/10/09 04:38:07;;;;;;;;;3.50;2.25;;;;;20.50;38.83;101667.94;5069565;28;45339;-61
2022/10/09 04:40:32;;;;;;;;;3.00;2.00;;;;;20.51;39.00;101669.66;5066896;28;45309;-63
2022/10/09 04:42:58;;;;;;;;;1.50;1.50;;;;;20.50;38.84;101667.94;5075265;28;45422;-60
2022/10/09 04:45:23;;;;;;;;;1.00;1.00;;;;;20.50;38.70;101668.81;5059095;28;45512;-63
2022/10/09 04:47:48;;;;;;;;;1.75;1.75;;;;;20.49;38.91;101666.22;5057779;28;45312;-62
2022/10/09 04:50:14;;;;;;;;;2.25;2.00;;;;;20.49;38.71;101661.84;5059241;28;46372;-62
2022/10/09 04:52:39;;;;;;;;;2.25;1.00;;;;;20.49;38.77;101660.97;5057876;28;45800;-60
2022/10/09 04:55:05;;;;;;;;;1.00;1.00;;;;;20.49;39.13;101661.84;5056891;28;45601;-61
2022/10/09 04:57:30;;;;;;;;;1.75;1.25;;;;;20.49;38.91;101660.97;5057406;28;45435;-64
2022/10/09 04:59:56;;;;;;;;;1.75;1.75;;;;;20.48;39.31;101654.84;5067226;28;45307;-59
2022/10/09 05:02:21;;;;;;;;;2.25;2.00;;;;;20.49;38.99;101655.69;5069221;28;45315;-64
2022/10/09 05:04:46;;;;;;;;;1.00;1.00;;;;;20.48;38.65;101649.59;5063395;28;47406;-63
2022/10/09 05:07:11;;;;;;;;;1.75;1.50;;;;;20.49;38.78;101647.78;5043136;28;45244;-63
2022/10/09 05:09:37;;;;;;;;;2.00;2.00;;;;;20.48;39.01;101638.19;5057417;28;45470;-62
2022/10/09 05:12:02;;;;;;;;;2.00;2.00;;;;;20.47;38.59;101642.59;5038112;28;51075;-61
2022/10/09 05:14:27;;;;;;;;;4.00;1.50;;;;;20.45;38.94;101639.19;5055367;28;46280;-60
2022/10/09 05:16:53;;;;;;;;;2.00;2.00;;;;;20.47;38.90;101641.72;5055754;28;45331;-59
2022/10/09 05:19:18;;;;;;;;;2.00;2.00;;;;;20.47;38.73;101641.72;5056327;28;45881;-64
2022/10/09 05:21:43;;;;;;;;;1.00;1.00;;;;;20.46;38.64;101637.38;5056345;28;45572;-57
2022/10/09 05:24:09;;;;;;;;;1.00;1.00;;;;;20.46;39.20;101633.00;5056580;28;46646;-57
2022/10/09 05:26:34;;;;;;;;;1.00;1.00;;;;;20.46;38.60;101638.25;5056951;28;45387;-60
2022/10/09 05:28:59;;;;;;;;;1.00;1.00;;;;;20.47;38.66;101637.34;5056347;28;45367;-61
2022/10/09 05:31:27;;;;;;;;;2.00;2.00;;;;;20.45;39.09;101627.81;5057299;28;45516;-60
2022/10/09 05:33:53;;;;;;;;;1.50;1.50;;;;;20.45;39.08;101628.66;5066019;28;46580;-59
2022/10/09 05:36:19;;;;;;;;;1.00;1.00;;;;;20.46;38.91;101629.47;5047281;28;45875;-56
2022/10/09 05:38:45;;;;;;;;;1.50;1.50;;;;;20.46;39.11;101618.94;5060216;28;45501;-56
2022/10/09 05:41:13;;;;;;;;;2.25;2.00;;;;;20.46;38.87;101626.84;5060309;28;45569;-57
2022/10/09 05:43:41;;;;;;;;;2.00;2.00;;;;;20.46;38.74;101632.13;5060401;28;45394;-57
2022/10/09 05:46:14;;;;;;;;;2.75;2.00;;;;;20.45;39.01;101622.53;5067763;28;45279;-58
2022/10/09 05:48:41;;;;;;;;;2.50;2.00;;;;;20.46;38.73;101618.94;5077269;28;45340;-56
2022/10/09 05:51:09;;;;;;;;;2.50;1.75;;;;;20.45;38.76;101618.13;5072760;28;45395;-61
2022/10/09 05:53:34;;;;;;;;;3.25;2.00;;;;;20.44;38.72;101619.03;5054251;28;46014;-60
2022/10/09 05:56:24;;;;;;;;;1.00;1.00;;;;;20.45;39.11;101625.16;5079529;28;45501;-59
2022/10/09 05:58:55;;;;;;;;;0.00;0.00;;;;;20.45;38.94;101619.91;5079128;28;44745;-58
2022/10/09 06:01:23;;;;;;;;;4.00;2.00;;;;;20.44;38.90;101620.81;5079635;28;44837;-61
2022/10/09 06:03:50;;;;;;;;;2.00;1.00;;;;;20.44;39.15;101615.56;5061506;28;46257;-61
2022/10/09 06:06:16;;;;;;;;;3.00;1.00;;;;;20.44;38.93;101605.88;5060479;28;45205;-62
2022/10/09 06:08:41;;;;;;;;;2.00;1.75;;;;;20.42;39.10;101609.50;5060041;28;45359;-56
2022/10/09 06:11:16;;;;;;;;;2.75;1.75;;;;;20.44;39.13;101610.28;5059788;28;45630;-56
2022/10/09 06:13:42;;;;;;;;;1.00;1.00;;;;;20.44;38.69;101615.56;5041162;28;48304;-57
2022/10/09 06:16:12;;;;;;;;;2.25;2.00;;;;;20.43;39.07;101613.84;5059030;28;45311;-57
2022/10/09 06:18:40;;;;;;;;;2.75;1.00;;;;;20.44;38.66;101608.50;5063925;28;45391;-59
2022/10/09 06:21:06;;;;;;;;;2.25;2.00;;;;;20.44;38.69;101610.28;5079082;27;44899;-57
2022/10/09 06:23:32;;;;;;;;;4.00;2.00;;;;;20.44;38.61;101607.66;5044557;28;47335;-62
2022/10/09 06:26:03;;;;;;;;;1.75;1.75;;;;;20.43;38.81;101613.84;5065478;28;45510;-64
2022/10/09 06:28:29;;;;;;;;;1.00;1.00;;;;;20.43;38.67;101604.16;5073091;28;44699;-60
2022/10/09 06:31:02;;;;;;;;;0.00;0.00;;;;;20.43;38.62;101614.69;5061300;28;45299;-57
2022/10/09 06:33:35;;;;;;;;;1.25;1.25;;;;;20.44;39.12;101608.50;5059101;28;45415;-58
2022/10/09 06:36:03;;;;;;;;;2.00;1.50;;;;;20.44;39.13;101605.03;5058925;28;45688;-62
2022/10/09 06:38:29;;;;;;;;;1.50;1.50;;;;;20.42;39.08;101607.69;5059113;28;45239;-58
2022/10/09 06:40:54;;;;;;;;;1.50;1.50;;;;;20.43;38.75;101605.94;5040599;28;45530;-57
2022/10/09 06:43:20;;;;;;;;;3.00;1.75;;;;;20.42;38.93;101602.44;5058823;28;46373;-57
2022/10/09 06:45:45;;;;;;;;;1.00;1.00;;;;;20.43;38.88;101603.31;5058721;28;45283;-58
2022/10/09 06:48:10;;;;;;;;;1.25;1.25;;;;;20.41;38.71;101600.72;5059534;28;45260;-58
2022/10/09 06:50:36;;;;;;;;;1.25;1.25;;;;;20.43;38.93;101611.22;5059594;28;45427;-57
2022/10/09 06:53:05;;;;;;;;;2.00;2.00;;;;;20.43;39.13;101608.56;5058549;28;46404;-59
2022/10/09 06:55:31;;;;;;;;;1.00;1.00;;;;;20.42;38.49;101612.13;5065052;28;45380;-56
2022/10/09 06:57:57;;;;;;;;;1.00;1.00;;;;;20.41;38.51;101613.88;5061100;28;45909;-59
2022/10/09 07:00:22;;;;;;;;;2.25;2.25;;;;;20.42;38.88;101606.84;5058998;28;45605;-55
2022/10/09 07:02:48;;;;;;;;;1.25;1.25;;;;;20.42;38.47;101601.59;5058420;28;46619;-58
2022/10/09 07:05:14;;;;;;;;;4.00;2.00;;;;;20.43;38.68;101598.88;5058616;28;45668;-56
2022/10/09 07:07:40;;;;;;;;;2.50;1.50;;;;;20.42;38.55;101602.44;5041090;28;45372;-59
2022/10/09 07:10:07;;;;;;;;;1.25;1.25;;;;;20.42;38.77;101602.44;5041343;28;45886;-59
2022/10/09 07:12:36;;;;;;;;;2.00;2.00;;;;;20.42;38.49;101598.97;5060613;28;46404;-57
2022/10/09 07:15:05;;;;;;;;;2.00;2.00;;;;;20.42;39.06;101596.31;5063372;28;45746;-56
2022/10/09 07:17:32;;;;;;;;;2.00;2.00;;;;;20.42;38.73;101596.31;5044555;28;45422;-59
2022/10/09 07:19:57;;;;;;;;;1.25;1.00;;;;;20.42;38.77;101591.06;5075464;28;45549;-60
2022/10/09 07:22:23;;;;;;;;;1.00;1.00;;;;;20.43;38.84;101592.78;5077695;28;46338;-58
2022/10/09 07:24:49;;;;;;;;;2.00;2.00;;;;;20.42;38.59;101585.78;5077916;28;44780;-56
2022/10/09 07:27:15;;;;;;;;;1.50;1.50;;;;;20.39;38.61;101586.78;5061080;28;45461;-55
2022/10/09 07:29:40;;;;;;;;;3.50;1.50;;;;;20.41;38.71;101590.19;5060034;28;45438;-58
2022/10/09 07:32:06;;;;;;;;;2.00;1.00;;;;;20.42;38.73;101591.91;5040549;28;54793;-62
2022/10/09 07:34:31;;;;;;;;;1.50;1.50;;;;;20.42;38.57;101591.06;5058712;28;45226;-62
2022/10/09 07:36:56;;;;;;;;;3.00;1.00;;;;;20.42;38.46;101586.63;5059015;28;45331;-57
2022/10/09 07:39:22;;;;;;;;;1.50;1.25;;;;;20.41;38.61;101579.66;5054368;28;45594;-57
2022/10/09 07:41:51;;;;;;;;;2.25;2.25;;;;;20.39;38.84;101577.09;5062074;28;45402;-60
2022/10/09 07:44:17;;;;;;;;;1.00;1.00;;;;;20.42;38.90;101585.78;5065237;28;45443;-63
2022/10/09 07:46:43;;;;;;;;;1.75;1.75;;;;;20.43;38.74;101584.88;5068234;28;45914;-60
2022/10/09 07:49:08;;;;;;;;;1.25;1.25;;;;;20.41;38.30;101578.81;5066664;28;45314;-63
2022/10/09 07:51:34;;;;;;;;;1.00;1.00;;;;;20.42;38.79;101577.91;5065435;28;47363;-60
2022/10/09 07:54:01;;;;;;;;;2.00;2.00;;;;;20.42;38.66;101570.00;5064343;28;45429;-62
2022/10/09 07:56:28;;;;;;;;;1.00;0.00;;;;;20.42;38.76;101575.25;5045212;28;45207;-57
2022/10/09 07:58:56;;;;;;;;;3.00;2.00;;;;;20.41;38.63;101570.91;5075118;28;44970;-58
2022/10/09 08:01:23;;;;;;;;;2.00;1.00;;;;;20.42;38.27;101568.22;5076358;28;46453;-62
2022/10/09 08:03:49;;;;;;;;;2.00;2.00;;;;;20.42;38.90;101570.84;5077154;28;45899;-60
2022/10/09 08:06:16;;;;;;;;;1.25;1.25;;;;;20.42;38.37;101572.63;5067405;28;44768;-63
2022/10/09 08:08:41;;;;;;;;;2.25;2.00;;;;;20.42;38.49;101564.72;5062000;28;45278;-62
2022/10/09 08:11:12;;;;;;;;;2.00;2.00;;;;;20.43;38.62;101561.19;5064635;28;46405;-60
2022/10/09 08:13:39;;;;;;;;;2.75;1.75;;;;;20.42;38.74;101562.09;5058851;28;45440;-61
2022/10/09 08:16:04;;;;;;;;;2.75;2.75;;;;;20.42;38.33;101557.66;5059190;28;45356;-57
2022/10/09 08:18:30;;;;;;;;;3.00;2.00;;;;;20.44;38.52;101562.91;5064731;28;45406;-61
2022/10/09 08:21:00;;;;;;;;;3.00;2.00;;;;;20.44;38.74;101560.25;5058326;28;46779;-63
2022/10/09 08:23:26;;;;;;;;;4.00;1.00;;;;;20.44;38.49;101552.38;5057804;28;45374;-62
2022/10/09 08:25:52;;;;;;;;;2.25;2.00;;;;;20.45;38.65;101554.06;5039874;28;45431;-61
2022/10/09 08:28:17;;;;;;;;;1.50;1.50;;;;;20.45;38.42;101554.06;5057831;28;45521;-63
2022/10/09 08:30:42;;;;;;;;;3.25;1.75;;;;;20.44;38.82;101553.19;5057977;28;46038;-62
2022/10/09 08:33:08;;;;;;;;;3.00;1.50;;;;;20.45;38.53;101541.75;5057474;28;45341;-63
2022/10/09 08:35:33;;;;;;;;;3.00;2.00;;;;;20.47;38.72;101549.56;5057632;28;45465;-62
2022/10/09 08:37:58;;;;;;;;;2.00;2.00;;;;;20.46;38.92;101546.09;5057912;28;45475;-63
2022/10/09 08:40:37;;;;;;;;;3.00;2.00;;;;;20.47;38.71;101546.94;5057485;28;51694;-58
2022/10/09 08:43:09;;;;;;;;;2.00;2.00;;;;;20.47;38.25;101545.19;5058662;28;45306;-58
2022/10/09 08:45:39;;;;;;;;;3.00;2.00;;;;;20.47;38.63;101545.19;5071424;28;45375;-62
2022/10/09 08:48:13;;;;;;;;;2.25;2.25;;;;;20.48;38.52;101538.13;5071086;28;45580;-63
2022/10/09 08:50:44;;;;;;;;;2.00;1.50;;;;;20.47;38.55;101532.00;5069611;28;45353;-63
2022/10/09 08:53:28;;;;;;;;;2.00;2.00;;;;;20.49;38.36;101527.53;5058072;28;45425;-63
2022/10/09 08:55:58;;;;;;;;;3.00;2.25;;;;;20.49;38.26;101530.19;5056918;28;45424;-63
2022/10/09 08:58:36;;;;;;;;;2.00;2.00;;;;;20.49;38.34;101527.53;5075204;28;45674;-60
2022/10/09 09:01:20;;;;;;;;;2.00;2.00;;;;;20.52;38.25;101523.91;5064920;28;45463;-63
2022/10/09 09:04:12;;;;;;;;;4.00;2.00;;;;;20.51;38.59;101522.19;5038305;28;45866;-61
2022/10/09 09:07:07;;;;;;;;;2.25;2.25;;;;;20.52;38.25;101518.63;5058198;28;45390;-59
2022/10/09 09:09:52;;;;;;;;;4.50;2.00;;;;;20.52;38.26;101526.53;5060277;28;45504;-60
2022/10/09 09:12:37;;;;;;;;;2.00;2.00;;;;;20.51;38.36;101511.66;5065255;28;46107;-58
2022/10/09 09:15:24;;;;;;;;;3.25;2.00;;;;;20.53;38.27;101513.28;5064693;28;45692;-62
2022/10/09 09:18:01;;;;;;;;;5.00;2.25;;;;;20.52;38.39;101503.69;5060667;28;45288;-64
2022/10/09 09:20:37;;;;;;;;;2.00;2.00;;;;;20.53;38.36;101505.41;5061086;28;45415;-64
2022/10/09 09:23:11;;;;;;;;;3.00;2.00;;;;;20.53;38.70;101502.75;5061268;28;45399;-61
2022/10/09 09:25:40;;;;;;;;;2.00;2.00;;;;;20.54;38.70;101501.84;5043029;28;45804;-63
2022/10/09 09:28:29;;;;;;;;;2.00;2.00;;;;;20.54;38.43;101493.94;5061045;28;45296;-62
2022/10/09 09:31:07;;;;;;;;;2.00;2.00;;;;;20.56;38.62;101496.50;5061347;28;45360;-63
2022/10/09 09:33:52;;;;;;;;;2.25;2.25;;;;;20.54;38.30;101486.03;5062157;28;46424;-61
2022/10/09 09:36:54;;;;;;;;;3.50;2.00;;;;;20.57;38.13;101489.47;5013661;28;45278;-63
2022/10/09 09:39:26;;;;;;;;;4.00;3.00;;;;;20.56;38.64;101478.06;5070322;28;45364;-58
2022/10/09 09:41:54;;;;;;;;;2.50;2.50;;;;;20.57;38.21;101482.41;5074884;28;45376;-62
2022/10/09 09:44:19;;;;;;;;;3.00;3.00;;;;;20.57;38.86;101468.41;5073464;28;45297;-63
2022/10/09 09:46:47;;;;;;;;;2.00;2.00;;;;;20.57;38.35;101463.97;5073226;28;45340;-58
2022/10/09 09:49:20;;;;;;;;;3.00;3.00;;;;;20.59;38.48;101467.38;5062162;28;45457;-64
2022/10/09 09:51:48;;;;;;;;;2.00;2.00;;;;;20.55;38.74;101464.06;5059868;28;45260;-62
2022/10/09 09:54:25;;;;;;;;;2.75;2.50;;;;;20.59;38.58;101462.13;5060254;28;46379;-63
2022/10/09 09:56:53;;;;;;;;;4.00;3.00;;;;;20.60;38.42;101458.56;5059959;28;45469;-64
2022/10/09 09:59:38;;;;;;;;;3.00;2.25;;;;;20.60;38.30;101458.56;5060596;28;45412;-63
2022/10/09 10:02:21;;;;;;;;;2.00;2.00;;;;;20.61;38.32;101456.81;5067175;28;45335;-63
2022/10/09 10:04:54;;;;;;;;;2.00;2.00;;;;;20.60;38.78;101453.31;5058749;28;46942;-60
2022/10/09 10:07:33;;;;;;;;;1.75;1.75;;;;;20.61;38.64;101435.75;5060492;28;45895;-63
2022/10/09 10:10:22;;;;;;;;;3.75;2.00;;;;;20.63;38.31;101439.13;5065412;28;45275;-63
2022/10/09 10:12:50;;;;;;;;;2.00;2.00;;;;;20.62;38.72;101437.41;5024214;28;45449;-64
2022/10/09 10:15:27;;;;;;;;;2.50;2.50;;;;;20.62;38.47;101424.25;5059646;28;46242;-57
2022/10/09 10:18:20;;;;;;;;;2.00;2.00;;;;;20.62;38.60;101422.50;5076496;28;45667;-63
2022/10/09 10:20:51;;;;;;;;;4.00;2.75;;;;;20.64;38.76;101420.63;5055569;28;45493;-58
2022/10/09 10:23:23;;;;;;;;;2.25;2.25;;;;;20.64;38.57;101411.88;5058771;28;45383;-64
2022/10/09 10:25:53;;;;;;;;;3.00;2.00;;;;;20.64;38.58;101415.38;5059895;28;46490;-63
2022/10/09 10:28:26;;;;;;;;;2.00;2.00;;;;;20.64;38.84;101418.00;5059451;28;45958;-62
2022/10/09 10:30:56;;;;;;;;;3.75;2.75;;;;;20.63;38.37;101405.75;5058405;28;45378;-62
2022/10/09 10:33:25;;;;;;;;;2.75;2.25;;;;;20.64;38.84;101396.06;5059545;28;45328;-61
2022/10/09 10:35:52;;;;;;;;;3.00;2.00;;;;;20.65;38.75;101403.91;5064293;28;47757;-60
2022/10/09 10:38:34;;;;;;;;;2.00;2.00;;;;;20.64;38.65;101396.94;5060733;28;45948;-63
2022/10/09 10:41:35;;;;;;;;;2.50;2.50;;;;;20.66;38.70;101399.50;5058327;28;45402;-63
2022/10/09 10:44:41;;;;;;;;;2.00;2.00;;;;;20.65;38.50;101390.75;5058503;28;45359;-63
2022/10/09 10:47:14;;;;;;;;;2.00;2.00;;;;;20.64;38.95;101389.03;5029846;28;46572;-61
2022/10/09 10:49:40;;;;;;;;;3.00;2.00;;;;;20.66;38.57;101383.69;5040409;28;45898;-63
2022/10/09 10:52:43;;;;;;;;;3.00;3.00;;;;;20.66;38.36;101381.06;5058024;28;45336;-63
2022/10/09 10:55:29;;;;;;;;;3.00;2.50;;;;;20.67;38.90;101374.84;5066734;28;45316;-62
2022/10/09 10:58:01;;;;;;;;;6.75;3.00;;;;;20.67;38.46;101367.78;5065807;28;45841;-60
2022/10/09 11:00:27;;;;;;;;;3.25;3.00;;;;;20.67;38.91;101365.16;5058361;28;45448;-60
2022/10/09 11:02:53;;;;;;;;;2.00;2.00;;;;;20.67;38.58;101365.16;5060440;28;45480;-63
2022/10/09 11:05:40;;;;;;;;;2.00;2.00;;;;;20.68;38.74;101356.34;5071404;28;45398;-65
2022/10/09 11:08:24;;;;;;;;;3.00;1.25;;;;;20.67;38.66;101344.09;5073290;28;45359;-62
2022/10/09 11:11:04;;;;;;;;;2.00;2.00;;;;;20.67;38.62;101344.09;5071118;28;45467;-64
2022/10/09 11:14:07;;;;;;;;;3.00;2.00;;;;;20.68;38.79;101335.25;5070416;28;45362;-57
2022/10/09 11:16:41;;;;;;;;;3.00;3.00;;;;;20.69;38.69;101333.50;5059641;28;45354;-62
2022/10/09 11:19:23;;;;;;;;;2.00;2.00;;;;;20.68;38.63;101329.16;5058255;28;46348;-59
2022/10/09 11:22:45;;;;;;;;;2.50;2.00;;;;;20.69;38.35;101326.44;5059056;28;45414;-60
2022/10/09 11:25:25;;;;;;;;;1.25;1.25;;;;;20.70;38.29;101322.88;4963468;28;45215;-63
2022/10/09 11:28:03;;;;;;;;;2.00;2.00;;;;;20.69;38.44;101320.34;4969448;28;45192;-62
2022/10/09 11:30:36;;;;;;;;;3.00;3.00;;;;;20.70;39.02;101314.13;5046580;28;46566;-63
2022/10/09 11:33:09;;;;;;;;;1.50;1.50;;;;;20.68;39.00;101308.94;5034028;28;45748;-60
2022/10/09 11:35:49;;;;;;;;;2.00;2.00;;;;;20.71;38.75;101300.03;5072788;28;45327;-60
2022/10/09 11:38:28;;;;;;;;;2.00;2.00;;;;;20.69;38.54;101297.47;5074736;28;45308;-55